Time;durP1;ratioP1;P1;durP2;ratioP2;P2;SDS_P1;SDS_P2;PMS_P1;PMS_P2;Temp;Humidity;BMP_temperature;BMP_pressure;BME280_temperature;BME280_humidity;BME280_pressure;Samples;Min_cycle;Max_cycle;Signal;HPM_P1;HPM_P2
2022/05/15 00:05:31;;;;;;;38.17;7.72;;;10.70;99.90;;;;;;6179504;23;20055;-89
2022/05/15 00:26:52;;;;;;;41.17;8.80;;;10.50;99.90;;;;;;6085785;23;20050;-89
2022/05/15 00:29:18;;;;;;;41.03;8.52;;;10.40;99.90;;;;;;6015146;23;20539;-87
2022/05/15 00:31:44;;;;;;;48.03;9.88;;;10.40;99.90;;;;;;6030099;23;20018;-88
2022/05/15 00:34:10;;;;;;;39.17;9.43;;;;;;;;;;6107298;23;20063;-88
2022/05/15 00:36:36;;;;;;;33.97;8.95;;;;;;;;;;6105620;23;20063;-88
2022/05/15 00:39:03;;;;;;;33.95;9.00;;;;;;;;;;6105764;23;20020;-87
2022/05/15 00:41:29;;;;;;;41.45;10.02;;;;;;;;;;6103223;23;20098;-89
2022/05/15 00:43:57;;;;;;;33.38;8.88;;;;;;;;;;6105615;23;20013;-89
2022/05/15 00:46:26;;;;;;;33.05;8.05;;;;;;;;;;6129616;23;20012;-88
2022/05/15 00:48:53;;;;;;;40.58;9.20;;;;;;;;;;6129470;23;20049;-88
2022/05/15 00:51:19;;;;;;;35.65;8.75;;;;;;;;;;6129775;23;20442;-89
2022/05/15 00:53:48;;;;;;;30.98;8.73;;;;;;;;;;6130207;23;20017;-89
2022/05/15 00:56:14;;;;;;;32.75;8.43;;;;;;;;;;6130479;23;20024;-88
2022/05/15 00:58:42;;;;;;;34.80;8.82;;;;;;;;;;6128804;23;20358;-89
2022/05/15 01:01:09;;;;;;;37.53;8.15;;;;;;;;;;6128769;23;20156;-88
2022/05/15 01:03:35;;;;;;;40.05;9.40;;;;;;;;;;6129460;23;20052;-88
2022/05/15 01:06:01;;;;;;;36.13;8.93;;;;;;;;;;6107745;23;20072;-88
2022/05/15 01:08:28;;;;;;;47.55;9.52;;;;;;;;;;6131482;23;20501;-89
2022/05/15 01:10:56;;;;;;;30.42;8.23;;;;;;;;;;6131053;23;20020;-88
2022/05/15 01:13:23;;;;;;;35.42;9.85;;;;;;;;;;6131521;23;20029;-88
2022/05/15 01:15:49;;;;;;;34.63;9.40;;;;;;;;;;6131341;23;20071;-88
2022/05/15 01:18:28;;;;;;;38.83;9.20;;;;;;;;;;6107000;23;20053;-88
2022/05/15 01:20:59;;;;;;;41.38;8.85;;;;;;;;;;6132068;23;20009;-89
2022/05/15 01:23:26;;;;;;;40.92;9.77;;;;;;;;;;6107431;23;20028;-89
2022/05/15 01:25:52;;;;;;;36.85;8.82;;;;;;;;;;6131386;23;20009;-88
2022/05/15 01:28:21;;;;;;;42.78;8.60;;;;;;;;;;6107742;23;20029;-87
2022/05/15 01:30:48;;;;;;;38.20;9.52;;;;;;;;;;6129163;23;20017;-88
2022/05/15 01:33:14;;;;;;;42.72;8.77;;;;;;;;;;6129930;23;20104;-88
2022/05/15 01:35:41;;;;;;;34.67;9.52;;;;;;;;;;6129912;23;20361;-87
2022/05/15 01:38:08;;;;;;;34.13;8.23;;;;;;;;;;6130532;23;20055;-88
2022/05/15 01:40:34;;;;;;;41.35;8.60;;;;;;;;;;6132159;23;20020;-88
2022/05/15 01:43:01;;;;;;;34.30;8.95;;;;;;;;;;6133039;23;20013;-87
2022/05/15 01:45:27;;;;;;;44.10;9.70;;;;;;;;;;6132155;23;20010;-88
2022/05/15 01:47:53;;;;;;;45.33;9.15;;;;;;;;;;6107976;23;20013;-88
2022/05/15 01:50:19;;;;;;;40.85;9.18;;;;;;;;;;6108022;23;20508;-88
2022/05/15 01:52:46;;;;;;;31.23;8.60;;;;;;;;;;6132451;23;20358;-88
2022/05/15 01:55:12;;;;;;;32.22;8.82;;;;;;;;;;6108157;23;20115;-88
2022/05/15 01:57:40;;;;;;;35.15;9.38;;;;;;;;;;6132582;23;20021;-88
2022/05/15 02:00:08;;;;;;;34.75;9.23;;;;;;;;;;6131850;23;20151;-88
2022/05/15 02:02:34;;;;;;;40.50;9.40;;;;;;;;;;6131424;23;20009;-88
2022/05/15 02:05:01;;;;;;;32.03;9.02;;;;;;;;;;6107376;23;20538;-88
2022/05/15 02:07:27;;;;;;;37.15;8.68;;;;;;;;;;6107356;23;20464;-89
2022/05/15 02:09:53;;;;;;;31.60;9.00;;;;;;;;;;6107030;23;20458;-88
2022/05/15 02:12:19;;;;;;;30.98;7.95;;;;;;;;;;6105527;23;20390;-88
2022/05/15 02:14:45;;;;;;;33.22;8.77;;;;;;;;;;6105603;23;20024;-88
2022/05/15 02:17:11;;;;;;;32.92;8.30;;;;;;;;;;6106842;23;20422;-88
2022/05/15 02:19:37;;;;;;;36.95;9.52;;;;;;;;;;6130391;23;20021;-89
2022/05/15 02:22:03;;;;;;;38.88;9.60;;;;;;;;;;6130379;23;20370;-88
2022/05/15 02:24:31;;;;;;;42.40;10.10;;;;;;;;;;6129826;23;20454;-87
2022/05/15 02:26:57;;;;;;;40.67;9.68;;;;;;;;;;6107149;23;20019;-87
2022/05/15 02:29:23;;;;;;;40.05;10.35;;;;;;;;;;6129460;23;20021;-88
2022/05/15 02:31:49;;;;;;;40.28;9.88;;;;;;;;;;6105237;23;20032;-87
2022/05/15 02:34:15;;;;;;;39.72;10.52;;;;;;;;;;6104913;23;20024;-89
2022/05/15 02:36:41;;;;;;;32.72;9.60;;;;;;;;;;6106126;23;20608;-88
2022/05/15 02:39:07;;;;;;;36.97;9.60;;;;;;;;;;6104517;23;20017;-88
2022/05/15 02:41:34;;;;;;;37.85;9.13;;;;;;;;;;6105944;23;20013;-88
2022/05/15 02:44:01;;;;;;;37.97;10.20;;;;;;;;;;6130668;23;20017;-88
2022/05/15 02:46:27;;;;;;;34.95;9.43;;;;;;;;;;6106474;23;20013;-87
2022/05/15 02:51:37;;;;;;;32.30;8.48;;;;;;;;;;6135286;23;20017;-88
2022/05/15 02:54:03;;;;;;;32.95;9.10;;;;;;;;;;6106878;23;20024;-88
2022/05/15 02:56:31;;;;;;;31.23;8.98;;;;;;;;;;6130713;23;20017;-88
2022/05/15 02:58:57;;;;;;;34.25;8.52;;;;;;;;;;6128958;23;20021;-87
2022/05/15 03:01:24;;;;;;;36.95;9.27;;;;;;;;;;6129895;23;20009;-87
2022/05/15 03:03:50;;;;;;;29.38;8.30;;;;;;;;;;6129410;23;20012;-88
2022/05/15 03:06:16;;;;;;;28.73;8.48;;;;;;;;;;6129647;23;20017;-88
2022/05/15 03:08:44;;;;;;;31.10;8.50;;;;;;;;;;6130922;23;20017;-88
2022/05/15 03:11:11;;;;;;;31.05;8.50;;;;;;;;;;6128648;23;20028;-88
2022/05/15 03:13:37;;;;;;;28.77;8.45;;;;;;;;;;6129412;23;20017;-88
2022/05/15 03:16:04;;;;;;;32.08;8.32;;;;;;;;;;6129450;23;20052;-88
2022/05/15 03:18:30;;;;;;;35.75;9.05;;;;;;;;;;6130569;23;20017;-88
2022/05/15 03:20:56;;;;;;;30.00;8.98;;;;;;;;;;6129706;23;20641;-89
2022/05/15 03:23:23;;;;;;;33.00;8.82;;;;;;;;;;6128942;23;20013;-88
2022/05/15 03:25:49;;;;;;;25.15;8.45;;;;;;;;;;6106135;23;20096;-89
2022/05/15 03:28:15;;;;;;;34.50;8.93;;;;;;;;;;6104651;23;20254;-88
2022/05/15 03:30:42;;;;;;;33.25;8.98;;;;;;;;;;6104532;23;20009;-88
2022/05/15 03:33:09;;;;;;;30.52;8.82;;;;;;;;;;6129213;23;20069;-88
2022/05/15 03:35:37;;;;;;;28.50;9.95;;;;;;;;;;6106263;23;20013;-89
2022/05/15 03:38:03;;;;;;;31.95;8.77;;;;;;;;;;6128232;23;20020;-87
2022/05/15 03:40:29;;;;;;;30.25;9.20;;;;;;;;;;6128803;23;20013;-88
2022/05/15 03:42:55;;;;;;;30.92;9.35;;;;;;;;;;6129176;23;20012;-89
2022/05/15 03:45:22;;;;;;;31.15;9.30;;;;;;;;;;6131398;23;20052;-88
2022/05/15 03:47:50;;;;;;;36.40;9.30;;;;;;;;;;6135129;23;20225;-89
2022/05/15 03:50:17;;;;;;;37.20;9.57;;;;;;;;;;6129691;23;20020;-88
2022/05/15 03:52:43;;;;;;;30.08;9.40;;;;;;;;;;6128371;23;20040;-88
2022/05/15 03:55:09;;;;;;;35.83;9.35;;;;;;;;;;6128481;23;20017;-87
2022/05/15 03:57:36;;;;;;;32.15;9.70;;;;;;;;;;6104402;23;20012;-87
2022/05/15 04:00:03;;;;;;;32.33;9.18;;;;;;;;;;6128936;23;20013;-88
2022/05/15 04:02:30;;;;;;;37.05;9.68;;;;;;;;;;6127850;23;20016;-89
2022/05/15 04:04:56;;;;;;;28.27;9.15;;;;;;;;;;6103187;23;20020;-88
2022/05/15 04:07:22;;;;;;;30.98;10.13;;;;;;;;;;6130507;23;20013;-89
2022/05/15 04:09:49;;;;;;;31.77;9.77;;;;;;;;;;6104498;23;20048;-88
2022/05/15 04:12:16;;;;;;;33.40;10.95;;;;;;;;;;6127859;23;20021;-88
2022/05/15 04:14:42;;;;;;;37.78;9.95;;;;;;;;;;6128853;23;20017;-88
2022/05/15 04:17:08;;;;;;;31.75;9.43;;;;;;;;;;6105270;23;20021;-88
2022/05/15 04:19:38;;;;;;;42.22;10.88;;;;;;;;;;6104513;23;20347;-88
2022/05/15 04:22:05;;;;;;;29.70;10.05;;;;;;;;;;6127732;23;20346;-88
2022/05/15 04:24:34;;;;;;;38.35;11.43;;;;;;;;;;6127947;23;20017;-88
2022/05/15 04:27:01;;;;;;;32.22;10.75;;;;;;;;;;6126630;23;20019;-88
2022/05/15 04:29:28;;;;;;;36.55;10.82;;;;;;;;;;6103542;23;20537;-89
2022/05/15 04:31:56;;;;;;;42.28;11.50;;;;;;;;;;6127930;23;20442;-88
2022/05/15 04:34:23;;;;;;;34.10;12.43;;;;;;;;;;6128620;23;20013;-88
2022/05/15 04:36:50;;;;;;;40.22;12.32;;;;;;;;;;6104147;23;20039;-88
2022/05/15 04:39:16;;;;;;;35.55;12.15;;;;;;;;;;6104259;23;20021;-89
2022/05/15 04:41:42;;;;;;;35.08;10.27;;;;;;;;;;6130762;23;20024;-87
2022/05/15 04:44:08;;;;;;;35.85;11.15;;;;;;;;;;6129597;23;20449;-87
2022/05/15 04:46:35;;;;;;;39.25;11.90;;;;;;;;;;6104254;23;20020;-89
2022/05/15 04:49:01;;;;;;;36.83;10.65;;;;;;;;;;6128356;23;20446;-88
2022/05/15 04:51:28;;;;;;;36.72;11.18;;;;;;;;;;6125655;23;20016;-88
2022/05/15 04:53:54;;;;;;;38.13;11.75;;;;;;;;;;6103473;23;20013;-87
2022/05/15 04:56:21;;;;;;;38.15;11.15;;;;;;;;;;6129177;23;20071;-88
2022/05/15 04:58:47;;;;;;;38.88;11.70;;;;;;;;;;6130345;23;20346;-88
2022/05/15 05:01:14;;;;;;;35.97;11.73;;;;;;;;;;6128510;23;20017;-88
2022/05/15 05:03:40;;;;;;;37.50;10.95;;;;;;;;;;6104864;23;20009;-91
2022/05/15 05:06:09;;;;;;;37.75;11.65;;;;;;;;;;6127960;23;20009;-90
2022/05/15 05:08:35;;;;;;;31.58;10.65;;;;;;;;;;6105871;23;20654;-89
2022/05/15 05:11:01;;;;;;;38.15;10.52;;;;;;;;;;6128283;23;20470;-89
2022/05/15 05:13:27;;;;;;;36.88;11.52;;;;;;;;;;6128367;23;20019;-87
2022/05/15 05:15:53;;;;;;;39.40;11.60;;;;;;;;;;6129565;23;20079;-88
2022/05/15 05:18:20;;;;;;;40.38;12.27;;;;;;;;;;6104933;23;20044;-89
2022/05/15 05:20:46;;;;;;;31.27;10.20;;;;;;;;;;6129052;23;20020;-90
2022/05/15 05:23:12;;;;;;;38.08;11.32;;;;;;;;;;6152388;23;20350;-88
2022/05/15 05:25:39;;;;;;;35.75;11.88;;;;;;;;;;6130720;23;20490;-87
2022/05/15 05:28:05;;;;;;;36.78;12.38;;;;;;;;;;6107532;23;20009;-89
2022/05/15 05:30:34;;;;;;;37.05;12.25;;;;;;;;;;6107158;23;20017;-88
2022/05/15 05:33:01;;;;;;;35.03;10.80;;;;;;;;;;6130891;23;20083;-87
2022/05/15 05:35:28;;;;;;;31.25;11.30;;;;;;;;;;6131445;23;20059;-90
2022/05/15 05:37:54;;;;;;;37.75;12.02;;;;;;;;;;6130907;23;20024;-86
2022/05/15 05:40:21;;;;;;;32.38;11.05;;;;;;;;;;6130781;23;20111;-87
2022/05/15 05:42:47;;;;;;;32.15;11.65;;;;;;;;;;6130938;23;20083;-90
2022/05/15 05:45:13;;;;;;;35.78;11.68;;;;;;;;;;6107405;23;20016;-89
2022/05/15 05:47:40;;;;;;;30.98;11.27;;;;;;;;;;6105952;23;20020;-88
2022/05/15 05:50:08;;;;;;;35.63;12.52;;;;;;;;;;6130056;23;20361;-87
2022/05/15 05:52:35;;;;;;;32.28;11.52;;;;;;;;;;6130138;23;20113;-89
2022/05/15 05:55:02;;;;;;;34.97;11.50;;;;;;;;;;6129253;23;20024;-91
2022/05/15 05:57:28;;;;;;;34.97;11.90;;;;;;;;;;6105810;23;20346;-89
2022/05/15 05:59:54;;;;;;;39.38;11.88;;;;;;;;;;6107496;23;20021;-89
2022/05/15 06:02:21;;;;;;;32.83;11.50;;;;;;;;;;6130472;23;20572;-87
2022/05/15 06:04:50;;;;;;;30.08;11.38;;;;;;;;;;6129692;23;20020;-89
2022/05/15 06:07:24;;;;;;;26.98;10.45;;;;;;;;;;6105963;23;20328;-87
2022/05/15 06:09:51;;;;;;;33.67;10.80;;;;;;;;;;6131735;23;20517;-91
2022/05/15 06:12:19;;;;;;;30.48;10.52;;;;;;;;;;6131885;23;20017;-88
2022/05/15 06:14:45;;;;;;;25.20;9.75;;;;;;;;;;6131631;23;20461;-87
2022/05/15 06:17:11;;;;;;;33.08;10.05;;;;;;;;;;6129684;23;20017;-90
2022/05/15 06:19:38;;;;;;;33.10;10.77;;;;;;;;;;6131392;23;20021;-88
2022/05/15 06:22:04;;;;;;;26.17;9.27;;;;;;;;;;6131195;23;20013;-87
2022/05/15 06:24:30;;;;;;;33.50;10.70;;;;;;;;;;6131585;23;20013;-88
2022/05/15 06:26:58;;;;;;;28.13;9.65;;;;;;;;;;6105716;23;20067;-88
2022/05/15 06:29:25;;;;;;;28.30;8.95;;;;;;;;;;6131436;23;20020;-88
2022/05/15 06:31:51;;;;;;;28.73;9.52;;;;;;;;;;6129597;23;20021;-88
2022/05/15 06:34:17;;;;;;;29.48;9.02;;;;;;;;;;6127769;23;20017;-90
2022/05/15 06:36:43;;;;;;;31.50;9.88;;;;;;;;;;6128716;23;20017;-87
2022/05/15 06:39:12;;;;;;;30.23;9.63;;;;;;;;;;6126917;23;20017;-89
2022/05/15 06:41:38;;;;;;;31.15;9.85;;;;;;;;;;6104017;23;20527;-87
2022/05/15 06:44:18;;;;;;;31.02;9.57;;;;;;;;;;6126584;23;20020;-86
2022/05/15 06:46:44;;;;;;;32.78;9.02;;;;;;;;;;6127558;23;20024;-87
2022/05/15 06:49:10;;;;;;;23.40;8.52;;;;;;;;;;6127293;23;20083;-89
2022/05/15 06:51:43;;;;;;;30.77;8.73;;;;;;;;;;6103920;23;20024;-87
2022/05/15 06:54:11;;;;;;;30.05;9.43;;;;;;;;;;6128611;23;20017;-87
2022/05/15 06:59:23;;;;;;;28.15;8.52;;;10.40;99.90;;;;;;6152907;23;20705;-89
2022/05/15 07:01:52;;;;;;;30.52;8.70;;;14.00;99.90;;;;;;6101735;23;20021;-91
2022/05/15 07:04:18;;;;;;;28.38;8.48;;;;;;;;;;6082425;23;20013;-90
2022/05/15 07:06:44;;;;;;;29.15;8.75;;;;;;;;;;6105730;23;20537;-92
2022/05/15 07:09:12;;;;;;;21.90;7.65;;;;;;;;;;6131739;23;20024;-90
2022/05/15 07:11:40;;;;;;;27.63;7.82;;;;;;;;;;6126655;23;20020;-88
2022/05/15 07:14:06;;;;;;;28.02;8.07;;;;;;;;;;6103920;23;20063;-90
2022/05/15 07:16:32;;;;;;;24.25;6.82;;;;;;;;;;6106204;23;20017;-87
2022/05/15 07:18:58;;;;;;;22.98;7.05;;;;;;;;;;6104535;23;20407;-90
2022/05/15 07:21:24;;;;;;;27.00;7.63;;;;;;;;;;6105982;23;20009;-88
2022/05/15 07:23:50;;;;;;;26.17;7.30;;;;;;;;;;6106389;23;20064;-88
2022/05/15 07:26:16;;;;;;;32.83;7.95;;;;;;;;;;6106291;23;20091;-87
2022/05/15 07:28:51;;;;;;;29.88;6.90;;;;;;;;;;6105190;23;20013;-89
2022/05/15 07:31:21;;;;;;;28.45;6.82;;;;;;;;;;6130297;23;20016;-90
2022/05/15 07:33:49;;;;;;;27.98;6.95;;;;;;;;;;6129492;23;20013;-87
2022/05/15 07:36:26;;;;;;;26.90;7.13;;;;;;;;;;6130973;23;20023;-88
2022/05/15 07:38:52;;;;;;;25.02;6.85;;;;;;;;;;6131486;23;20036;-90
2022/05/15 07:41:18;;;;;;;29.20;7.00;;;;;;;;;;6106781;23;20020;-87
2022/05/15 07:43:44;;;;;;;28.77;6.95;;;;;;;;;;6130487;23;20009;-87
2022/05/15 07:46:11;;;;;;;21.02;6.30;;;;;;;;;;6106195;23;20013;-89
2022/05/15 07:48:42;;;;;;;25.90;7.20;;;;;;;;;;6129650;23;20017;-87
2022/05/15 07:51:08;;;;;;;25.13;6.40;;;;;;;;;;6106783;23;20013;-87
2022/05/15 07:53:35;;;;;;;30.42;7.60;;;;;;;;;;6129423;23;20013;-86
2022/05/15 07:56:16;;;;;;;20.85;6.05;;;;;;;;;;6107425;23;20017;-93
2022/05/15 07:58:43;;;;;;;22.55;6.20;;;;;;;;;;6110308;23;20657;-90
2022/05/15 08:01:10;;;;;;;18.23;4.97;;;;;;;;;;6130062;23;20009;-88
2022/05/15 08:03:42;;;;;;;21.70;5.50;;;;;;;;;;6130826;23;20012;-89
2022/05/15 08:08:59;;;;;;;18.45;5.07;;;;;;;;;;6155790;23;20020;-88
2022/05/15 08:11:28;;;;;;;15.02;4.80;;;;;;;;;;6131720;23;20024;-88
2022/05/15 08:13:55;;;;;;;22.90;4.93;;;;;;;;;;6105954;23;20021;-93
2022/05/15 08:16:22;;;;;;;27.02;6.05;;;;;;;;;;6129303;23;20027;-86
2022/05/15 08:24:45;;;;;;;26.02;5.68;;;;;;;;;;6133094;23;20458;-86
2022/05/15 08:27:11;;;;;;;25.77;5.13;;;;;;;;;;6130629;23;20009;-89
2022/05/15 08:29:38;;;;;;;23.23;5.18;;;;;;;;;;6105783;23;20101;-87
2022/05/15 08:32:08;;;;;;;21.42;5.05;;;;;;;;;;6128767;23;20013;-89
2022/05/15 08:34:35;;;;;;;23.45;5.72;;;;;;;;;;6130234;23;20017;-90
2022/05/15 08:37:01;;;;;;;16.95;5.10;;;;;;;;;;6129864;23;20048;-88
2022/05/15 08:39:28;;;;;;;24.83;5.85;;;;;;;;;;6127421;23;20096;-88
2022/05/15 08:41:57;;;;;;;23.77;5.35;;;;;;;;;;6127185;23;20020;-89
2022/05/15 08:44:29;;;;;;;23.17;5.43;;;;;;;;;;6129185;23;20117;-88
2022/05/15 08:47:17;;;;;;;24.23;5.20;;;;;;;;;;6128625;23;20071;-87
2022/05/15 08:49:52;;;;;;;22.50;5.07;;;;;;;;;;6127628;23;20453;-90
2022/05/15 08:52:23;;;;;;;28.15;6.85;;;;;;;;;;6126256;23;20095;-86
2022/05/15 08:54:53;;;;;;;22.77;5.05;;;;;;;;;;6128147;23;20156;-88
2022/05/15 08:57:37;;;;;;;17.88;4.43;;;;;;;;;;6128454;23;20027;-88
2022/05/15 09:00:05;;;;;;;23.00;5.22;;;;;;;;;;6124817;23;20020;-88
2022/05/15 09:02:32;;;;;;;21.10;4.50;;;;;;;;;;6126550;23;20013;-90
2022/05/15 09:04:58;;;;;;;20.13;5.00;;;;;;;;;;6126864;23;20060;-89
2022/05/15 09:07:38;;;;;;;18.95;4.32;;;;;;;;;;6102835;23;20043;-88
2022/05/15 09:10:13;;;;;;;20.55;4.32;;;;;;;;;;6131444;23;20017;-88
2022/05/15 09:12:43;;;;;;;21.27;4.88;;;;;;;;;;6131428;23;20017;-89
2022/05/15 09:15:14;;;;;;;21.92;4.57;;;;;;;;;;6130700;23;20485;-87
2022/05/15 09:17:48;;;;;;;22.63;4.60;;;;;;;;;;6123107;23;20017;-88
2022/05/15 09:20:26;;;;;;;24.13;5.22;;;;;;;;;;6122965;23;20096;-89
2022/05/15 09:23:11;;;;;;;18.38;4.78;;;;;;;;;;6125110;23;20024;-90
2022/05/15 09:25:41;;;;;;;24.00;4.95;;;;;;;;;;6127303;23;20374;-89
2022/05/15 09:28:16;;;;;;;20.80;4.65;;;;;;;;;;6129701;23;20063;-90
2022/05/15 09:30:48;;;;;;;19.00;4.32;;;;;;;;;;6128858;23;20021;-89
2022/05/15 09:33:21;;;;;;;17.02;4.25;;;;;;;;;;6129868;23;20096;-90
2022/05/15 09:35:53;;;;;;;20.08;5.10;;;;;;;;;;6129414;23;20338;-89
2022/05/15 09:38:33;;;;;;;19.67;4.55;;;;;;;;;;6128930;23;20048;-88
2022/05/15 09:44:03;;;;;;;18.38;4.65;;;;;;;;;;6153247;23;20047;-89
2022/05/15 09:46:41;;;;;;;17.75;4.78;;;;;;;;;;6153426;23;20123;-92
2022/05/15 09:49:16;;;;;;;22.50;4.75;;;;;;;;;;6130223;23;20013;-93
2022/05/15 09:51:58;;;;;;;18.45;4.55;;;;;;;;;;6129833;23;20086;-89
2022/05/15 09:54:41;;;;;;;;;;;;;;;;;;;;;
2022/05/15 09:57:39;;;;;;;19.65;5.10;;;;;;;;;;6116597;23;20064;-92
2022/05/15 10:00:14;;;;;;;25.23;4.40;;;;;;;;;;6150717;23;20482;-91
2022/05/15 10:03:03;;;;;;;15.48;4.43;;;;;;;;;;6129504;23;20013;-92
2022/05/15 10:05:37;;;;;;;19.67;5.25;;;;;;;;;;6128697;23;20083;-91
2022/05/15 10:08:04;;;;;;;17.88;4.38;;;;;;;;;;6129573;23;20017;-89
2022/05/15 10:11:13;;;;;;;23.80;4.90;;;;;;;;;;6127510;23;20013;-91
2022/05/15 10:13:45;;;;;;;14.48;3.72;;;;;;;;;;6126174;23;20521;-90
2022/05/15 10:16:26;;;;;;;23.27;4.88;;;;;;;;;;6127953;23;20099;-89
2022/05/15 10:18:53;;;;;;;17.20;3.80;;;;;;;;;;6128070;23;20017;-89
2022/05/15 10:21:23;;;;;;;21.13;4.65;;;;;;;;;;6126802;23;20096;-90
2022/05/15 10:23:54;;;;;;;19.90;4.45;;;;;;;;;;6151266;23;20017;-91
2022/05/15 10:26:23;;;;;;;18.88;4.63;;;;;;;;;;6127842;23;20021;-87
2022/05/15 10:29:17;;;;;;;23.13;4.65;;;;;;;;;;6127774;23;20513;-90
2022/05/15 10:31:43;;;;;;;18.00;4.60;;;;;;;;;;6128874;23;20019;-90
2022/05/15 10:34:11;;;;;;;16.85;4.00;;;;;;;;;;6127513;23;20322;-89
2022/05/15 10:36:47;;;;;;;17.98;4.25;;;;;;;;;;6127318;23;20025;-89
2022/05/15 10:39:22;;;;;;;21.65;4.30;;;;;;;;;;6124817;23;20013;-92
2022/05/15 10:41:54;;;;;;;18.00;4.78;;;;;;;;;;6124084;23;20040;-89
2022/05/15 10:44:23;;;;;;;21.33;4.22;;;;;;;;;;6128506;23;20013;-87
2022/05/15 10:46:59;;;;;;;13.80;4.60;;;;;;;;;;6123482;23;20016;-88
2022/05/15 10:49:44;;;;;;;22.92;4.85;;;;;;;;;;6125926;23;20028;-88
2022/05/15 10:52:30;;;;;;;21.15;4.88;;;;;;;;;;6126920;23;20021;-88
2022/05/15 10:58:11;;;;;;;17.77;4.32;;;;;;;;;;6155053;23;20046;-91
2022/05/15 11:00:56;;;;;;;17.73;4.55;;;;;;;;;;6128055;23;20017;-91
2022/05/15 11:03:34;;;;;;;16.88;4.15;;;;;;;;;;6125877;23;20013;-89
2022/05/15 11:06:06;;;;;;;18.58;3.92;;;;;;;;;;6126201;23;20523;-91
2022/05/15 11:08:48;;;;;;;21.77;4.90;;;;;;;;;;6128560;23;20009;-88
2022/05/15 11:11:14;;;;;;;18.60;5.00;;;;;;;;;;6128298;23;20017;-87
2022/05/15 11:13:40;;;;;;;19.08;5.72;;;;;;;;;;6129818;23;20017;-91
2022/05/15 11:16:09;;;;;;;20.70;6.28;;;;;;;;;;6127800;23;20009;-88
2022/05/15 11:18:57;;;;;;;15.45;4.20;;;;;;;;;;6128738;23;20446;-92
2022/05/15 11:21:31;;;;;;;14.05;3.63;;;;;;;;;;6131264;23;20019;-88
2022/05/15 11:24:00;;;;;;;13.43;3.80;;;;;;;;;;6129129;23;20013;-89
2022/05/15 11:26:26;;;;;;;19.88;4.40;;;;;;;;;;6128226;23;20722;-90
2022/05/15 11:28:54;;;;;;;19.15;4.43;;;;;;;;;;6128194;23;20052;-88
2022/05/15 11:31:28;;;;;;;15.57;3.95;;;;;;;;;;6127196;23;20024;-87
2022/05/15 11:34:03;;;;;;;17.75;4.32;;;;;;;;;;6128739;23;20017;-89
2022/05/15 11:36:35;;;;;;;17.02;4.00;;;;;;;;;;6129839;23;20036;-89
2022/05/15 11:39:06;;;;;;;15.20;4.20;;;;;;;;;;6134906;23;20013;-90
2022/05/15 11:41:44;;;;;;;15.07;4.10;;;;;;;;;;6131537;23;20358;-91
2022/05/15 11:44:20;;;;;;;19.65;4.43;;;;;;;;;;6127695;23;20009;-89
2022/05/15 11:46:55;;;;;;;13.05;3.90;;;;;;;;;;6130162;23;20338;-92
2022/05/15 11:49:33;;;;;;;19.02;4.30;;;;;;;;;;6126804;23;20469;-89
2022/05/15 11:51:59;;;;;;;13.75;3.97;;;;;;;;;;6127085;23;20017;-89
2022/05/15 11:54:45;;;;;;;15.95;4.05;;;;;;;;;;6128223;23;20438;-93
2022/05/15 11:57:13;;;;;;;19.95;4.43;;;;;;;;;;6127071;23;20136;-90
2022/05/15 11:59:52;;;;;;;20.10;5.07;;;;;;;;;;6118092;23;20032;-87
2022/05/15 12:02:37;;;;;;;16.05;4.53;;;;;;;;;;6067905;23;20084;-88
2022/05/15 12:11:54;;;;;;;18.63;4.43;;;;;;;;;;6119214;23;20170;-88
2022/05/15 12:14:26;;;;;;;14.98;4.05;;;;;;;;;;6069743;23;20061;-91
2022/05/15 12:17:01;;;;;;;14.63;3.80;;;;;;;;;;6066448;23;20014;-88
2022/05/15 12:19:29;;;;;;;14.05;4.32;;;;;;;;;;6066200;23;20018;-85
2022/05/15 12:21:56;;;;;;;15.40;3.80;;;;;;;;;;6091409;23;20077;-89
2022/05/15 12:24:27;;;;;;;15.82;4.78;;;;;;;;;;6066611;23;20024;-88
2022/05/15 12:27:11;;;;;;;13.05;3.72;;;14.10;99.90;;;;;;6065467;23;20010;-89
2022/05/15 12:30:03;;;;;;;21.58;3.83;;;;;;;;;;6065374;23;20494;-87
2022/05/15 12:32:40;;;;;;;17.77;4.50;;;;;;;;;;6068385;23;20068;-88
2022/05/15 12:35:22;;;;;;;15.73;4.05;;;;;;;;;;6065711;23;20958;-89
2022/05/15 12:37:53;;;;;;;19.80;4.88;;;;;;;;;;6067641;23;20014;-87
2022/05/15 12:40:33;;;;;;;17.83;4.50;;;;;;;;;;6070395;23;20061;-87
2022/05/15 12:43:00;;;;;;;27.88;4.22;;;;;;;;;;6066840;23;20100;-86
2022/05/15 12:45:26;;;;;;;20.17;4.53;;;;;;;;;;6044937;23;20014;-84
2022/05/15 12:48:07;;;;;;;16.00;4.53;;;;;;;;;;6045175;23;20021;-87
2022/05/15 12:50:34;;;;;;;56.97;7.32;;;;;;;;;;6066100;23;20014;-87
2022/05/15 12:53:04;;;;;;;17.85;3.85;;;;;;;;;;6068174;23;20017;-88
2022/05/15 12:55:30;;;;;;;14.90;3.67;;;;;;;;;;6044552;23;20022;-88
2022/05/15 12:58:00;;;;;;;16.73;4.13;;;;;;;;;;6068229;23;20028;-89
2022/05/15 13:00:29;;;;;;;18.55;4.97;;;;;;;;;;6068107;23;20020;-87
2022/05/15 13:03:00;;;;;;;15.77;3.67;;;;;;;;;;6070258;23;20084;-84
2022/05/15 13:05:52;;;;;;;14.40;3.97;;;;;;;;;;6067256;23;20017;-88
2022/05/15 13:08:19;;;;;;;13.23;3.67;;;;;;;;;;6070806;23;20045;-86
2022/05/15 13:11:04;;;;;;;12.38;3.63;;;;;;;;;;6071689;23;20423;-90
2022/05/15 13:13:35;;;;;;;14.25;3.47;;;;;;;;;;6069702;23;20017;-88
2022/05/15 13:16:02;;;;;;;16.17;4.00;;;;;;;;;;6070563;23;20029;-86
2022/05/15 13:18:31;;;;;;;15.98;3.65;;;;;;;;;;6050420;23;20022;-87
2022/05/15 13:21:05;;;;;;;18.17;3.60;;;;;;;;;;6071906;23;20055;-86
2022/05/15 13:23:33;;;;;;;14.00;3.30;;;;;;;;;;6070358;23;20021;-87
2022/05/15 13:26:00;;;;;;;11.82;3.40;;;;;;;;;;6068290;23;20022;-86
2022/05/15 13:28:26;;;;;;;14.65;3.58;;;;;;;;;;6046218;23;20464;-90
2022/05/15 13:30:53;;;;;;;12.77;3.40;;;;;;;;;;6073423;23;20010;-85
2022/05/15 13:33:25;;;;;;;14.52;3.55;;;21.60;54.90;;;;;;6070207;23;20080;-87
2022/05/15 13:35:54;;;;;;;15.50;5.23;;;23.20;47.60;;;;;;6069689;23;20021;-87
2022/05/15 13:43:17;;;;;;;16.23;4.03;;;;;;;;;;6070011;23;20645;-86
2022/05/15 13:44:14;;;;;;;12.18;3.42;;;22.90;48.80;;;;;;6095900;23;20018;-86
2022/05/15 13:46:43;;;;;;;16.42;3.75;;;;;;;;;;6073098;23;20440;-88
2022/05/15 13:49:12;;;;;;;13.85;3.92;;;;;;;;;;6071914;23;20451;-89
2022/05/15 13:51:38;;;;;;;11.55;4.15;;;;;;;;;;6069534;23;20014;-88
2022/05/15 13:54:06;;;;;;;15.68;4.40;;;;;;;;;;6070859;23;20013;-88
2022/05/15 13:56:33;;;;;;;12.07;3.30;;;;;;;;;;6074476;23;20073;-90
2022/05/15 13:58:59;;;;;;;13.75;3.47;;;;;;;;;;6092949;23;20030;-90
2022/05/15 14:01:25;;;;;;;11.95;3.53;;;;;;;;;;6067149;23;20167;-88
2022/05/15 14:03:59;;;;;;;17.55;3.88;;;;;;;;;;6067385;23;20577;-88
2022/05/15 14:06:32;;;;;;;16.50;3.83;;;;;;;;;;6046244;23;20013;-87
2022/05/15 14:09:04;;;;;;;15.80;3.28;;;;;;;;;;6065940;23;20018;-88
2022/05/15 14:11:50;;;;;;;17.50;4.28;;;;;;;;;;6068888;23;20018;-86
2022/05/15 14:14:16;;;;;;;17.75;3.80;;;;;;;;;;6071711;23;20024;-84
2022/05/15 14:16:43;;;;;;;13.98;3.72;;;;;;;;;;6070182;23;20018;-89
2022/05/15 14:19:20;;;;;;;15.15;3.63;;;;;;;;;;6044053;23;20021;-87
2022/05/15 14:21:59;;;;;;;13.60;3.65;;;;;;;;;;6069929;23;20013;-88
2022/05/15 14:24:27;;;;;;;12.25;4.10;;;;;;;;;;6069827;23;20014;-86
2022/05/15 14:26:53;;;;;;;14.95;3.42;;;;;;;;;;6069956;23;20010;-91
2022/05/15 14:29:20;;;;;;;11.95;3.20;;;;;;;;;;6069973;23;20021;-89
2022/05/15 14:31:49;;;;;;;19.98;4.43;;;;;;;;;;6069772;23;20477;-87
2022/05/15 14:34:15;;;;;;;13.25;3.72;;;;;;;;;;6068733;23;20034;-89
2022/05/15 14:36:43;;;;;;;15.25;3.75;;;;;;;;;;6046563;23;20029;-89
2022/05/15 14:39:18;;;;;;;12.85;3.83;;;;;;;;;;6049042;23;20022;-90
2022/05/15 14:44:25;;;;;;;12.13;3.60;;;;;;;;;;6177767;23;20028;-88
2022/05/15 14:47:09;;;;;;;15.52;4.00;;;;;;;;;;6128098;23;20386;-89
2022/05/15 14:49:36;;;;;;;9.75;3.25;;;;;;;;;;6127697;23;20019;-88
2022/05/15 14:52:03;;;;;;;14.30;3.45;;;;;;;;;;6126518;23;20095;-89
2022/05/15 14:54:33;;;;;;;16.13;4.00;;;;;;;;;;6127742;23;20017;-90
2022/05/15 14:57:01;;;;;;;16.13;5.32;;;;;;;;;;6125408;23;20013;-89
2022/05/15 14:59:28;;;;;;;15.93;4.05;;;;;;;;;;6128096;23;20476;-89
2022/05/15 15:01:57;;;;;;;12.18;3.45;;;;;;;;;;6129211;23;20024;-89
2022/05/15 15:04:23;;;;;;;13.77;3.75;;;;;;;;;;6127984;23;20027;-85
2022/05/15 15:06:49;;;;;;;11.23;3.42;;;;;;;;;;6126888;23;20013;-89
2022/05/15 15:09:16;;;;;;;14.43;3.28;;;;;;;;;;6128033;23;20027;-89
2022/05/15 15:11:49;;;;;;;17.10;7.78;;;;;;;;;;6128068;23;20100;-88
2022/05/15 15:14:16;;;;;;;13.73;3.70;;;;;;;;;;6124173;23;20017;-87
2022/05/15 15:16:44;;;;;;;10.18;2.92;;;;;;;;;;6102186;23;20017;-91
2022/05/15 15:19:12;;;;;;;11.95;3.22;;;;;;;;;;6126589;23;20012;-88
2022/05/15 15:21:38;;;;;;;9.13;2.92;;;;;;;;;;6123338;23;20013;-89
2022/05/15 15:24:05;;;;;;;13.02;3.92;;;;;;;;;;6122866;23;20047;-91
2022/05/15 15:26:32;;;;;;;11.00;3.00;;;;;;;;;;6118337;23;20032;-87
2022/05/15 15:29:20;;;;;;;20.15;10.95;;;;;;;;;;6122333;23;20021;-86
2022/05/15 15:32:00;;;;;;;10.50;4.20;;;;;;;;;;6125100;23;20498;-87
2022/05/15 15:34:26;;;;;;;46.97;31.20;;;;;;;;;;6124745;23;20013;-87
2022/05/15 15:38:15;;;;;;;57.95;40.35;;;;;;;;;;6126705;23;20354;-87